Aviation Digital Data Service (ADDS)

Output produced by METARs form (1141 UTC 19 February 2019)
found at http://www.aviationweather.gov/metar/data/
 
Forecast for: VDSV (SIHANOUKVILLE , KH)
Text: TAF VDSV 191100Z 1912/2006 18007KT 9999 SCT017
Forecast period: 1200 UTC 19 February 2019 to 0600 UTC 20 February 2019
Forecast type: FROM: standard forecast or significant change
Winds: from the S (180 degrees) at 8 MPH (7 knots; 3.6 m/s)
Visibility: 6 or more miles 10+ km)
Ceiling: at least 12,000 feet AGL
Clouds: scattered clouds at 1700 feet AGL
Weather: no significant weather forecast for this period